Terminal Aerodrome Forecast
Issued by NWS

Home | Current Version | Previous Version | Text Only | Print | Product List | Glossary On
Versions: 1 2 3 4 5 6 7 8 9 10 11 12
000
FTPQ31 PGUM 071724
TAFGUM
TAF

TAF
PTRO 071724Z 0718/0818 VRB05KT P6SM VCSH SCT015 SCT030 BKN110
      TEMPO 0719/0723 4SM SHRA BKN015=

USA.gov is the U.S. government's official web portal to all federal, state and local government web resources and services.